createdAt,value
2018-11-02T00:00:36.487Z,1.60
2018-11-02T00:03:04.597Z,1.65
2018-11-02T00:05:32.078Z,1.95
2018-11-02T00:07:59.535Z,1.75
2018-11-02T00:10:26.995Z,1.98
2018-11-02T00:12:54.861Z,1.57
2018-11-02T00:15:22.367Z,2.17
2018-11-02T00:17:49.842Z,1.45
2018-11-02T00:20:17.346Z,1.60
2018-11-02T00:22:44.820Z,0.90
2018-11-02T00:25:12.303Z,1.10
2018-11-02T00:27:39.803Z,1.40
2018-11-02T00:30:07.329Z,1.65
2018-11-02T00:32:34.820Z,1.40
2018-11-02T00:35:02.330Z,1.00
2018-11-02T00:37:30.138Z,0.90
2018-11-02T00:39:57.586Z,1.10
2018-11-02T00:42:25.044Z,1.10
2018-11-02T00:44:52.522Z,1.12
2018-11-02T00:47:20.005Z,1.20
2018-11-02T00:49:47.487Z,0.95
2018-11-02T00:52:14.957Z,1.00
2018-11-02T00:54:42.456Z,0.93
2018-11-02T00:57:09.906Z,1.00
2018-11-02T00:59:37.382Z,1.10
2018-11-02T01:02:05.339Z,0.82
2018-11-02T01:04:32.828Z,1.02
2018-11-02T01:07:00.310Z,1.10
2018-11-02T01:09:27.819Z,1.20
2018-11-02T01:11:55.283Z,1.40
2018-11-02T01:14:22.784Z,1.20
2018-11-02T01:16:50.425Z,1.00
2018-11-02T01:19:17.848Z,0.88
2018-11-02T01:21:45.394Z,1.00
2018-11-02T01:24:12.928Z,0.80
2018-11-02T01:26:40.398Z,1.07
2018-11-02T01:29:07.858Z,0.80
2018-11-02T01:31:35.412Z,0.90
2018-11-02T01:34:02.927Z,1.10
2018-11-02T01:36:30.441Z,0.75
2018-11-02T01:38:57.923Z,0.70
2018-11-02T01:41:25.451Z,0.72
2018-11-02T01:43:52.979Z,0.80
2018-11-02T01:46:20.492Z,0.80
2018-11-02T01:48:47.995Z,0.80
2018-11-02T01:51:15.505Z,0.60
2018-11-02T01:53:42.977Z,0.60
2018-11-02T01:56:10.461Z,0.62
2018-11-02T01:58:37.949Z,0.75
2018-11-02T02:01:05.510Z,0.90
2018-11-02T02:03:32.997Z,0.70
2018-11-02T02:06:00.521Z,0.60
2018-11-02T02:08:28.007Z,0.60
2018-11-02T02:10:55.491Z,0.70
2018-11-02T02:13:23.164Z,0.70
2018-11-02T02:15:50.562Z,0.53
2018-11-02T02:18:18.043Z,0.60
2018-11-02T02:20:45.574Z,0.50
2018-11-02T02:23:13.075Z,0.70
2018-11-02T02:25:40.610Z,0.80
2018-11-02T02:28:08.094Z,0.50
2018-11-02T02:30:35.579Z,1.10
2018-11-02T02:33:03.119Z,0.68
2018-11-02T02:35:30.645Z,0.70
2018-11-02T02:37:58.101Z,0.65
2018-11-02T02:40:25.597Z,0.70
2018-11-02T02:42:53.101Z,0.75
2018-11-02T02:45:20.677Z,0.88
2018-11-02T02:47:48.193Z,0.65
2018-11-02T02:50:15.706Z,0.57
2018-11-02T02:52:43.900Z,0.62
2018-11-02T02:55:11.402Z,0.90
2018-11-02T02:57:38.902Z,0.75
2018-11-02T03:00:08.696Z,0.70
2018-11-02T03:02:36.177Z,0.60
2018-11-02T03:05:03.771Z,0.90
2018-11-02T03:07:31.259Z,0.70
2018-11-02T03:09:58.771Z,0.70
2018-11-02T03:12:26.310Z,0.80
2018-11-02T03:14:53.812Z,0.50
2018-11-02T03:17:21.307Z,0.60
2018-11-02T03:19:48.766Z,0.60
2018-11-02T03:22:16.347Z,0.70
2018-11-02T03:24:43.798Z,0.60
2018-11-02T03:27:11.289Z,0.65
2018-11-02T03:29:38.784Z,0.60
2018-11-02T03:32:06.300Z,0.60
2018-11-02T03:34:33.805Z,0.90
2018-11-02T03:37:01.282Z,0.70
2018-11-02T03:39:28.759Z,0.80
2018-11-02T03:41:56.298Z,0.62
2018-11-02T03:44:23.807Z,0.53
2018-11-02T03:46:51.413Z,0.95
2018-11-02T03:49:18.903Z,0.70
2018-11-02T03:51:46.442Z,0.78
2018-11-02T03:54:13.942Z,0.60
2018-11-02T03:56:41.487Z,0.88
2018-11-02T03:59:08.934Z,0.70
2018-11-02T04:01:36.504Z,0.90
2018-11-02T04:04:04.311Z,0.75
2018-11-02T04:06:31.802Z,0.85
2018-11-02T04:08:59.295Z,0.78
2018-11-02T04:11:26.843Z,0.70
2018-11-02T04:13:54.607Z,0.70
2018-11-02T04:16:22.155Z,0.80
2018-11-02T04:18:49.631Z,0.82
2018-11-02T04:21:17.143Z,0.88
2018-11-02T04:23:44.611Z,1.10
2018-11-02T04:26:12.124Z,0.95
2018-11-02T04:28:39.617Z,0.98
2018-11-02T04:31:07.175Z,1.00
2018-11-02T04:33:34.624Z,0.95
2018-11-02T04:36:02.116Z,1.12
2018-11-02T04:38:29.641Z,0.90
2018-11-02T04:40:57.205Z,1.70
2018-11-02T04:43:24.701Z,1.02
2018-11-02T04:45:52.182Z,1.40
2018-11-02T04:48:19.680Z,1.50
2018-11-02T04:50:47.201Z,1.17
2018-11-02T04:53:14.641Z,1.47
2018-11-02T04:55:42.152Z,1.90
2018-11-02T04:58:09.628Z,1.65
2018-11-02T05:00:37.222Z,1.60
2018-11-02T05:03:08.277Z,1.80
2018-11-02T05:05:35.864Z,1.65
2018-11-02T05:08:03.385Z,2.15
2018-11-02T05:10:30.929Z,2.50
2018-11-02T05:12:58.461Z,2.72
2018-11-02T05:15:25.993Z,2.50
2018-11-02T05:17:53.517Z,2.20
2018-11-02T05:20:21.045Z,2.12
2018-11-02T05:22:48.526Z,2.35
2018-11-02T05:25:16.046Z,2.30
2018-11-02T05:27:43.525Z,2.75
2018-11-02T05:30:11.071Z,2.58
2018-11-02T05:32:38.737Z,2.00
2018-11-02T05:35:06.296Z,2.60
2018-11-02T05:37:33.806Z,2.30
2018-11-02T05:40:01.297Z,2.35
2018-11-02T05:42:28.768Z,3.85
2018-11-02T05:44:56.325Z,2.70
2018-11-02T05:47:23.856Z,6.15
2018-11-02T05:49:51.325Z,3.27
2018-11-02T05:52:18.926Z,3.95
2018-11-02T05:54:46.411Z,2.98
2018-11-02T05:57:13.934Z,3.20
2018-11-02T05:59:41.498Z,3.62
2018-11-02T06:02:10.016Z,3.80
2018-11-02T06:04:37.558Z,3.50
2018-11-02T06:07:05.227Z,3.50
2018-11-02T06:09:32.741Z,2.90
2018-11-02T06:12:00.269Z,3.42
2018-11-02T06:14:27.768Z,2.55
2018-11-02T06:16:55.349Z,2.90
2018-11-02T06:19:22.843Z,2.55
2018-11-02T06:21:50.403Z,2.77
2018-11-02T06:24:18.035Z,2.75
2018-11-02T06:26:45.528Z,3.10
2018-11-02T06:29:13.089Z,2.40
2018-11-02T06:31:40.612Z,2.22
2018-11-02T06:34:08.093Z,2.00
2018-11-02T06:36:35.835Z,1.70
2018-11-02T06:39:04.944Z,2.67
2018-11-02T06:41:32.426Z,2.67
2018-11-02T06:43:59.919Z,1.87
2018-11-02T06:46:27.413Z,2.02
2018-11-02T06:48:54.931Z,1.80
2018-11-02T06:51:22.436Z,1.40
2018-11-02T06:53:49.950Z,1.77
2018-11-02T06:56:17.444Z,1.80
2018-11-02T06:58:44.977Z,1.00
2018-11-02T07:01:12.519Z,0.90
2018-11-02T07:03:40.082Z,1.27
2018-11-02T07:06:07.635Z,1.40
2018-11-02T07:08:35.172Z,1.98
2018-11-02T07:11:02.697Z,1.77
2018-11-02T07:13:30.225Z,2.40
2018-11-02T07:15:57.787Z,2.40
2018-11-02T07:18:25.303Z,2.60
2018-11-02T07:20:52.788Z,2.25
2018-11-02T07:23:20.280Z,4.90
2018-11-02T07:25:47.755Z,5.78
2018-11-02T07:28:15.328Z,5.20
2018-11-02T07:30:42.854Z,4.80
2018-11-02T07:33:10.390Z,4.15
2018-11-02T07:35:37.922Z,5.05
2018-11-02T07:38:05.532Z,2.47
2018-11-02T07:40:33.018Z,3.22
2018-11-02T07:43:00.508Z,2.80
2018-11-02T07:45:28.016Z,2.85
2018-11-02T07:47:55.516Z,1.85
2018-11-02T07:50:23.036Z,1.47
2018-11-02T07:52:50.748Z,1.70
2018-11-02T07:55:18.270Z,1.40
2018-11-02T07:57:45.833Z,1.60
2018-11-02T08:00:14.669Z,1.60
2018-11-02T08:02:45.052Z,1.30
2018-11-02T08:05:13.320Z,1.55
2018-11-02T08:07:40.878Z,1.60
2018-11-02T08:10:08.771Z,2.05
2018-11-02T08:12:37.515Z,2.47
2018-11-02T08:15:06.891Z,2.70
2018-11-02T08:17:34.394Z,2.90
2018-11-02T08:20:01.919Z,4.60
2018-11-02T08:22:29.452Z,3.75
2018-11-02T08:24:56.975Z,3.17
2018-11-02T08:27:24.521Z,3.40
2018-11-02T08:29:52.005Z,3.00
2018-11-02T08:32:19.495Z,5.40
2018-11-02T08:34:47.040Z,4.80
2018-11-02T08:37:14.570Z,4.53
2018-11-02T08:39:42.057Z,3.65
2018-11-02T08:42:09.660Z,4.47
2018-11-02T08:44:37.130Z,5.08
2018-11-02T08:47:05.102Z,4.10
2018-11-02T08:49:32.620Z,4.20
2018-11-02T08:52:00.147Z,3.83
2018-11-02T08:54:27.729Z,4.10
2018-11-02T08:56:55.198Z,3.55
2018-11-02T08:59:22.871Z,2.92
2018-11-02T09:01:50.307Z,2.75
2018-11-02T09:04:17.788Z,2.33
2018-11-02T09:06:45.588Z,1.80
2018-11-02T09:09:13.078Z,2.12
2018-11-02T09:11:40.555Z,1.95
2018-11-02T09:14:09.796Z,1.50
2018-11-02T09:16:37.325Z,1.80
2018-11-02T09:19:04.989Z,1.47
2018-11-02T09:21:32.578Z,1.82
2018-11-02T09:24:00.107Z,1.77
2018-11-02T09:26:27.685Z,1.45
2018-11-02T09:28:55.889Z,1.40
2018-11-02T09:31:23.485Z,1.52
2018-11-02T09:33:51.022Z,1.40
2018-11-02T09:36:18.475Z,1.40
2018-11-02T09:38:46.370Z,1.47
2018-11-02T09:41:13.839Z,1.90
2018-11-02T09:43:41.317Z,1.40
2018-11-02T09:46:08.852Z,7.08
2018-11-02T09:48:36.364Z,3.05
2018-11-02T09:51:04.193Z,6.37
2018-11-02T09:53:31.777Z,4.65
2018-11-02T09:55:59.302Z,6.95
2018-11-02T09:58:26.820Z,3.58
2018-11-02T10:00:54.476Z,1.12
2018-11-02T10:03:21.954Z,1.20
2018-11-02T10:05:49.563Z,1.62
2018-11-02T10:08:17.101Z,1.20
2018-11-02T10:10:44.600Z,1.40
2018-11-02T10:13:12.169Z,1.75
2018-11-02T10:15:39.715Z,1.85
2018-11-02T10:18:07.293Z,1.30
2018-11-02T10:20:34.796Z,1.17
2018-11-02T10:23:02.347Z,1.10
2018-11-02T10:25:29.886Z,1.10
2018-11-02T10:27:57.545Z,1.40
2018-11-02T10:30:25.137Z,1.07
2018-11-02T10:32:54.095Z,1.30
2018-11-02T10:35:21.795Z,1.15
2018-11-02T10:37:49.730Z,1.05
2018-11-02T10:40:18.160Z,1.20
2018-11-02T10:42:52.628Z,1.40
2018-11-02T10:45:20.877Z,1.50
2018-11-02T10:47:48.509Z,1.50
2018-11-02T10:50:16.033Z,1.70
2018-11-02T10:52:43.596Z,1.35
2018-11-02T10:55:11.125Z,1.75
2018-11-02T10:57:38.675Z,1.70
2018-11-02T11:00:13.869Z,1.73
2018-11-02T11:02:41.485Z,1.50
2018-11-02T11:05:09.103Z,1.00
2018-11-02T11:07:36.876Z,1.20
2018-11-02T11:10:06.377Z,2.23
2018-11-02T11:12:34.142Z,1.00
2018-11-02T11:15:01.412Z,1.32
2018-11-02T11:17:28.962Z,2.02
2018-11-02T11:19:56.513Z,4.58
2018-11-02T11:22:24.084Z,5.30
2018-11-02T11:24:51.708Z,7.57
2018-11-02T11:27:19.254Z,3.33
2018-11-02T11:29:46.839Z,2.90
2018-11-02T11:32:14.514Z,1.50
2018-11-02T11:34:42.156Z,16.30
2018-11-02T11:37:09.780Z,2.67
2018-11-02T11:39:37.459Z,1.50
2018-11-02T11:42:05.325Z,2.05
2018-11-02T11:44:32.881Z,2.60
2018-11-02T11:47:00.457Z,1.67
2018-11-02T11:49:28.054Z,1.33
2018-11-02T11:51:55.625Z,1.40
2018-11-02T11:54:25.215Z,1.33
2018-11-02T11:56:52.657Z,1.20
2018-11-02T11:59:20.283Z,1.67
2018-11-02T12:01:47.810Z,1.20
2018-11-02T12:04:15.393Z,1.37
2018-11-02T12:06:42.922Z,1.53
2018-11-02T12:09:10.553Z,1.10
2018-11-02T12:11:38.145Z,1.03
2018-11-02T12:14:05.710Z,1.20
2018-11-02T12:16:33.280Z,1.10
2018-11-02T12:19:00.859Z,1.57
2018-11-02T12:21:28.418Z,1.20
2018-11-02T12:23:55.967Z,1.50
2018-11-02T12:26:23.599Z,1.60
2018-11-02T12:28:51.211Z,1.30
2018-11-02T12:31:18.702Z,1.40
2018-11-02T12:33:46.324Z,1.27
2018-11-02T12:36:13.832Z,1.13
2018-11-02T12:38:41.378Z,1.40
2018-11-02T12:41:08.918Z,1.30
2018-11-02T12:43:37.650Z,1.50
2018-11-02T12:46:05.101Z,1.30
2018-11-02T12:48:32.709Z,3.33
2018-11-02T12:51:00.131Z,2.90
2018-11-02T12:53:27.704Z,2.50
2018-11-02T12:55:55.211Z,1.57
2018-11-02T12:58:22.799Z,1.60
2018-11-02T13:00:50.307Z,0.97
2018-11-02T13:03:17.855Z,1.03
2018-11-02T13:05:45.417Z,1.00
2018-11-02T13:08:12.921Z,1.12
2018-11-02T13:10:40.451Z,0.90
2018-11-02T13:13:07.955Z,1.20
2018-11-02T13:15:35.418Z,0.97
2018-11-02T13:18:02.924Z,1.27
2018-11-02T13:20:30.468Z,2.00
2018-11-02T13:22:57.947Z,2.03
2018-11-02T13:25:25.544Z,3.10
2018-11-02T13:27:52.961Z,1.40
2018-11-02T13:30:20.632Z,1.37
2018-11-02T13:32:48.037Z,1.30
2018-11-02T13:35:16.781Z,12.47
2018-11-02T13:37:44.714Z,8.47
2018-11-02T13:40:13.409Z,2.10
2018-11-02T13:42:41.277Z,1.53
2018-11-02T13:45:10.460Z,1.50
2018-11-02T13:47:38.406Z,1.40
2018-11-02T13:50:06.745Z,1.23
2018-11-02T13:52:34.400Z,1.87
2018-11-02T13:55:02.175Z,1.50
2018-11-02T13:57:29.738Z,1.27
2018-11-02T13:59:57.301Z,1.30
2018-11-02T14:02:24.876Z,1.40
2018-11-02T14:04:52.394Z,1.60
2018-11-02T14:07:19.957Z,1.87
2018-11-02T14:09:47.544Z,1.20
2018-11-02T14:12:15.460Z,1.90
2018-11-02T14:14:42.940Z,1.47
2018-11-02T14:17:10.494Z,1.53
2018-11-02T14:19:38.061Z,2.10
2018-11-02T14:22:05.650Z,1.87
2018-11-02T14:24:33.255Z,1.80
2018-11-02T14:27:00.823Z,1.63
2018-11-02T14:29:28.481Z,1.32
2018-11-02T14:31:56.084Z,2.00
2018-11-02T14:34:24.885Z,2.90
2018-11-02T14:36:52.413Z,2.30
2018-11-02T14:39:20.059Z,2.50
2018-11-02T14:41:47.642Z,2.10
2018-11-02T14:44:15.219Z,2.10
2018-11-02T14:46:42.794Z,2.02
2018-11-02T14:49:10.381Z,2.30
2018-11-02T14:51:37.948Z,2.10
2018-11-02T14:54:05.622Z,2.62
2018-11-02T14:56:33.431Z,4.60
2018-11-02T14:59:01.015Z,5.05
2018-11-02T15:01:29.197Z,2.98
2018-11-02T15:03:57.737Z,3.20
2018-11-02T15:06:26.251Z,2.90
2018-11-02T15:08:54.128Z,2.85
2018-11-02T15:11:21.964Z,3.58
2018-11-02T15:13:50.410Z,3.47
2018-11-02T15:16:18.003Z,11.33
2018-11-02T15:18:45.547Z,9.30
2018-11-02T15:21:13.147Z,9.23
2018-11-02T15:23:40.722Z,7.03
2018-11-02T15:26:08.344Z,6.62
2018-11-02T15:28:35.932Z,5.90
2018-11-02T15:31:03.652Z,5.83
2018-11-02T15:33:31.401Z,10.98
2018-11-02T15:35:58.938Z,6.40
2018-11-02T15:38:26.460Z,5.40
2018-11-02T15:40:54.136Z,5.17
2018-11-02T15:43:21.639Z,5.90
2018-11-02T15:45:49.195Z,6.00
2018-11-02T15:48:16.723Z,4.40
2018-11-02T15:50:44.283Z,5.25
2018-11-02T15:53:11.837Z,14.63
2018-11-02T15:55:39.419Z,65.90
2018-11-02T15:58:07.016Z,55.25
2018-11-02T16:00:34.660Z,27.52
2018-11-02T16:03:02.303Z,27.42
2018-11-02T16:05:29.835Z,58.23
2018-11-02T16:07:57.434Z,39.83
2018-11-02T16:10:25.069Z,33.33
2018-11-02T16:12:52.728Z,20.70
2018-11-02T16:15:20.448Z,34.18
2018-11-02T16:17:48.082Z,34.03
2018-11-02T16:20:15.803Z,41.95
2018-11-02T16:22:43.847Z,111.65
2018-11-02T16:25:11.833Z,18.50
2018-11-02T16:27:39.587Z,10.03
2018-11-02T16:30:07.748Z,14.95
2018-11-02T16:32:35.268Z,24.23
2018-11-02T16:35:03.007Z,26.75
2018-11-02T16:37:30.626Z,25.55
2018-11-02T16:39:58.179Z,16.42
2018-11-02T16:42:26.090Z,26.07
2018-11-02T16:44:53.848Z,47.75
2018-11-02T16:47:21.209Z,43.28
2018-11-02T16:49:48.759Z,25.70
2018-11-02T16:52:16.314Z,17.55
2018-11-02T16:54:44.026Z,19.42
2018-11-02T16:57:11.543Z,24.75
2018-11-02T16:59:39.109Z,24.25
2018-11-02T17:02:06.702Z,15.72
2018-11-02T17:04:34.381Z,10.65
2018-11-02T17:07:01.935Z,18.62
2018-11-02T17:09:29.621Z,11.05
2018-11-02T17:11:57.227Z,12.60
2018-11-02T17:14:24.798Z,9.10
2018-11-02T17:16:52.726Z,7.03
2018-11-02T17:19:20.244Z,6.17
2018-11-02T17:21:47.917Z,10.80
2018-11-02T17:24:15.840Z,8.38
2018-11-02T17:26:43.681Z,12.70
2018-11-02T17:29:11.427Z,13.15
2018-11-02T17:31:39.016Z,6.12
2018-11-02T17:34:06.647Z,9.53
2018-11-02T17:36:34.289Z,9.43
2018-11-02T17:39:01.813Z,7.70
2018-11-02T17:41:30.148Z,7.40
2018-11-02T17:43:57.663Z,7.15
2018-11-02T17:46:25.275Z,6.87
2018-11-02T17:48:52.897Z,7.22
2018-11-02T17:51:20.498Z,8.68
2018-11-02T17:53:48.079Z,7.70
2018-11-02T17:56:15.678Z,9.28
2018-11-02T17:58:43.219Z,11.25
2018-11-02T18:01:10.819Z,8.98
2018-11-02T18:03:38.444Z,8.43
2018-11-02T18:06:06.154Z,7.10
2018-11-02T18:08:33.760Z,7.50
2018-11-02T18:11:01.335Z,6.80
2018-11-02T18:13:29.030Z,6.65
2018-11-02T18:15:56.741Z,6.45
2018-11-02T18:18:24.468Z,8.85
2018-11-02T18:20:52.883Z,14.58
2018-11-02T18:23:20.984Z,12.80
2018-11-02T18:25:48.662Z,13.50
2018-11-02T18:28:16.215Z,10.13
2018-11-02T18:30:43.982Z,11.00
2018-11-02T18:33:11.729Z,12.50
2018-11-02T18:35:39.501Z,11.00
2018-11-02T18:38:07.088Z,11.50
2018-11-02T18:40:34.781Z,9.40
2018-11-02T18:43:02.549Z,8.13
2018-11-02T18:45:30.144Z,8.38
2018-11-02T18:47:59.117Z,7.62
2018-11-02T18:50:27.062Z,7.35
2018-11-02T18:52:54.722Z,13.45
2018-11-02T18:55:22.312Z,12.88
2018-11-02T18:57:50.404Z,13.48
2018-11-02T19:00:18.683Z,11.28
2018-11-02T19:02:46.423Z,10.53
2018-11-02T19:05:15.999Z,11.80
2018-11-02T19:07:43.741Z,11.30
2018-11-02T19:10:12.325Z,10.25
2018-11-02T19:12:40.696Z,9.35
2018-11-02T19:15:10.919Z,10.05
2018-11-02T19:17:38.576Z,10.75
2018-11-02T19:20:06.844Z,11.33
2018-11-02T19:22:34.887Z,9.80
2018-11-02T19:25:02.686Z,10.15
2018-11-02T19:27:31.499Z,10.28
2018-11-02T19:29:59.641Z,9.23
2018-11-02T19:32:28.015Z,10.03
2018-11-02T19:34:55.892Z,11.00
2018-11-02T19:37:23.527Z,11.15
2018-11-02T19:39:51.781Z,11.38
2018-11-02T19:42:23.610Z,11.40
2018-11-02T19:44:52.520Z,11.20
2018-11-02T19:47:20.756Z,11.33
2018-11-02T19:49:48.513Z,15.35
2018-11-02T19:52:16.291Z,18.00
2018-11-02T19:54:44.011Z,23.62
2018-11-02T19:57:12.733Z,17.32
2018-11-02T19:59:41.248Z,14.38
2018-11-02T20:02:09.022Z,16.82
2018-11-02T20:04:38.868Z,16.60
2018-11-02T20:07:06.543Z,15.38
2018-11-02T20:09:36.283Z,10.80
2018-11-02T20:12:03.970Z,9.70
2018-11-02T20:14:33.509Z,12.85
2018-11-02T20:17:03.611Z,11.95
2018-11-02T20:19:31.473Z,12.53
2018-11-02T20:22:02.170Z,13.53
2018-11-02T20:24:30.061Z,10.80
2018-11-02T20:26:57.845Z,8.55
2018-11-02T20:29:26.206Z,9.03
2018-11-02T20:31:54.469Z,10.32
2018-11-02T20:34:22.102Z,12.30
2018-11-02T20:36:49.869Z,11.57
2018-11-02T20:39:17.538Z,10.03
2018-11-02T20:41:45.098Z,12.40
2018-11-02T20:44:13.836Z,12.40
2018-11-02T20:46:41.710Z,12.13
2018-11-02T20:49:09.488Z,12.63
2018-11-02T20:51:37.112Z,11.18
2018-11-02T20:54:04.896Z,11.33
2018-11-02T20:56:33.501Z,13.48
2018-11-02T20:59:01.130Z,12.03
2018-11-02T21:01:28.680Z,14.40
2018-11-02T21:03:56.300Z,13.22
2018-11-02T21:06:23.874Z,12.80
2018-11-02T21:08:51.433Z,12.53
2018-11-02T21:11:18.981Z,12.58
2018-11-02T21:13:46.512Z,12.23
2018-11-02T21:16:14.188Z,13.03
2018-11-02T21:18:41.780Z,11.55
2018-11-02T21:21:09.314Z,13.28
2018-11-02T21:23:36.803Z,11.57
2018-11-02T21:26:04.447Z,10.45
2018-11-02T21:28:32.058Z,10.28
2018-11-02T21:30:59.613Z,15.88
2018-11-02T21:33:27.243Z,17.40
2018-11-02T21:35:54.762Z,15.60
2018-11-02T21:38:22.475Z,15.53
2018-11-02T21:40:49.963Z,13.98
2018-11-02T21:43:17.548Z,13.90
2018-11-02T21:45:45.275Z,12.35
2018-11-02T21:48:13.001Z,9.95
2018-11-02T21:50:40.802Z,9.55
2018-11-02T21:53:08.361Z,8.40
2018-11-02T21:55:35.857Z,8.65
2018-11-02T21:58:03.380Z,8.53
2018-11-02T22:00:30.926Z,8.83
2018-11-02T22:02:58.519Z,10.20
2018-11-02T22:05:26.078Z,9.73
2018-11-02T22:07:53.627Z,7.67
2018-11-02T22:10:21.150Z,12.15
2018-11-02T22:12:48.743Z,9.60
2018-11-02T22:15:16.276Z,8.88
2018-11-02T22:17:43.790Z,8.65
2018-11-02T22:20:12.902Z,9.15
2018-11-02T22:22:40.758Z,9.25
2018-11-02T22:25:09.484Z,8.50
2018-11-02T22:27:37.082Z,10.40
2018-11-02T22:30:06.720Z,10.03
2018-11-02T22:32:34.304Z,12.35
2018-11-02T22:35:01.840Z,8.83
2018-11-02T22:37:29.472Z,7.97
2018-11-02T22:39:57.009Z,8.75
2018-11-02T22:42:24.576Z,7.62
2018-11-02T22:44:52.085Z,6.87
2018-11-02T22:47:19.593Z,7.70
2018-11-02T22:49:47.777Z,7.90
2018-11-02T22:52:15.249Z,8.10
2018-11-02T22:54:42.726Z,8.25
2018-11-02T22:57:10.191Z,7.83
2018-11-02T22:59:37.698Z,7.28
2018-11-02T23:02:05.623Z,8.00
2018-11-02T23:04:33.139Z,7.25
2018-11-02T23:07:00.647Z,7.67
2018-11-02T23:09:28.163Z,7.00
2018-11-02T23:11:55.699Z,7.67
2018-11-02T23:14:23.229Z,7.95
2018-11-02T23:16:50.700Z,8.15
2018-11-02T23:19:18.239Z,8.08
2018-11-02T23:21:45.748Z,8.05
2018-11-02T23:24:13.208Z,7.92
2018-11-02T23:26:40.718Z,7.97
2018-11-02T23:29:09.186Z,7.67
2018-11-02T23:31:37.227Z,8.55
2018-11-02T23:34:05.100Z,9.03
2018-11-02T23:36:32.688Z,9.90
2018-11-02T23:39:00.176Z,7.65
2018-11-02T23:41:27.776Z,8.23
2018-11-02T23:43:55.330Z,7.78
2018-11-02T23:46:22.840Z,8.10
2018-11-02T23:48:50.336Z,8.90
2018-11-02T23:51:17.793Z,8.78
2018-11-02T23:53:45.295Z,8.25
2018-11-02T23:56:12.805Z,9.30
2018-11-02T23:58:40.310Z,8.95
